createdAt,value
2022-08-09T00:00:00.706Z,51.20
2022-08-09T00:02:34.538Z,50.60
2022-08-09T00:06:18.384Z,50.70
2022-08-09T00:07:54.426Z,50.80
2022-08-09T00:10:24.520Z,51.00
2022-08-09T00:12:53.470Z,51.10
2022-08-09T00:18:11.471Z,51.00
2022-08-09T00:20:42.153Z,50.90
2022-08-09T00:23:54.875Z,50.50
2022-08-09T00:26:11.323Z,51.50
2022-08-09T00:28:40.082Z,51.10
2022-08-09T00:31:09.353Z,51.20
2022-08-09T00:33:57.829Z,51.90
2022-08-09T00:36:27.192Z,51.70
2022-08-09T00:39:00.331Z,52.20
2022-08-09T00:44:10.865Z,52.30
2022-08-09T00:44:27.634Z,52.30
2022-08-09T00:47:05.489Z,52.40
2022-08-09T00:49:36.853Z,52.60
2022-08-09T00:52:17.304Z,52.40
2022-08-09T00:54:48.977Z,52.70
2022-08-09T01:00:21.411Z,52.20
2022-08-09T01:02:53.281Z,52.70
2022-08-09T01:05:46.398Z,52.70
2022-08-09T01:08:26.983Z,52.80
2022-08-09T01:11:09.711Z,52.90
2022-08-09T01:13:58.701Z,53.20
2022-08-09T01:16:33.692Z,53.30
2022-08-09T01:19:17.247Z,53.30
2022-08-09T01:22:16.455Z,53.30
2022-08-09T01:24:56.803Z,53.40
2022-08-09T01:27:29.203Z,53.50
2022-08-09T01:30:01.392Z,53.60
2022-08-09T01:32:34.754Z,53.50
2022-08-09T01:35:28.433Z,53.70
2022-08-09T01:38:09.609Z,53.80
2022-08-09T01:40:43.509Z,53.60
2022-08-09T01:43:14.502Z,53.80
2022-08-09T01:45:47.693Z,53.80
2022-08-09T01:48:18.452Z,53.90
2022-08-09T01:50:55.010Z,53.90
2022-08-09T01:53:29.260Z,54.30
2022-08-09T01:56:11.283Z,54.10
2022-08-09T01:58:43.814Z,53.90
2022-08-09T02:01:18.709Z,53.80
2022-08-09T02:03:48.566Z,54.30
2022-08-09T02:06:45.340Z,54.40
2022-08-09T02:09:16.407Z,54.50
2022-08-09T02:11:45.839Z,54.60
2022-08-09T02:14:25.686Z,54.50
2022-08-09T02:16:59.711Z,54.50
2022-08-09T02:19:44.113Z,54.70
2022-08-09T02:22:38.023Z,54.70
2022-08-09T02:25:15.231Z,54.80
2022-08-09T02:27:57.952Z,55.00
2022-08-09T02:30:32.984Z,55.00
2022-08-09T02:33:03.781Z,55.70
2022-08-09T02:36:03.015Z,55.20
2022-08-09T02:38:32.095Z,55.30
2022-08-09T02:41:08.581Z,55.30
2022-08-09T02:43:53.536Z,55.40
2022-08-09T02:46:28.612Z,55.60
2022-08-09T02:49:00.327Z,55.70
2022-08-09T02:51:37.207Z,55.70
2022-08-09T02:54:13.825Z,55.70
2022-08-09T02:56:51.235Z,55.70
2022-08-09T02:59:36.320Z,56.00
2022-08-09T03:02:11.957Z,56.10
2022-08-09T03:04:41.930Z,56.10
2022-08-09T03:07:14.524Z,56.30
2022-08-09T03:09:56.248Z,56.30
2022-08-09T03:12:27.564Z,56.40
2022-08-09T03:14:57.920Z,56.60
2022-08-09T03:17:29.398Z,56.70
2022-08-09T03:20:05.260Z,56.70
2022-08-09T03:22:41.765Z,57.30
2022-08-09T03:25:25.752Z,56.90
2022-08-09T03:28:20.191Z,55.70
2022-08-09T03:30:50.313Z,57.40
2022-08-09T03:33:23.004Z,57.50
2022-08-09T03:36:15.557Z,57.80
2022-08-09T03:38:44.713Z,57.70
2022-08-09T03:41:14.601Z,57.90
2022-08-09T03:44:02.943Z,58.10
2022-08-09T03:46:36.975Z,58.10
2022-08-09T03:49:09.289Z,58.20
2022-08-09T03:51:54.082Z,58.40
2022-08-09T03:54:29.338Z,58.50
2022-08-09T03:57:00.531Z,58.80
2022-08-09T03:59:43.256Z,58.90
2022-08-09T04:02:19.786Z,58.80
2022-08-09T04:04:58.640Z,59.00
2022-08-09T04:07:47.592Z,59.30
2022-08-09T04:10:20.283Z,59.20
2022-08-09T04:12:51.568Z,59.40
2022-08-09T04:15:40.496Z,59.60
2022-08-09T04:18:16.609Z,59.50
2022-08-09T04:20:48.667Z,59.70
2022-08-09T04:23:17.854Z,59.80
2022-08-09T04:25:51.924Z,59.90
2022-08-09T04:28:33.163Z,60.00
2022-08-09T04:31:07.787Z,60.10
2022-08-09T04:33:51.452Z,60.10
2022-08-09T04:36:24.923Z,60.30
2022-08-09T04:38:53.859Z,60.40
2022-08-09T04:41:24.405Z,60.50
2022-08-09T04:44:06.468Z,60.50
2022-08-09T04:46:58.361Z,60.80
2022-08-09T04:49:52.347Z,60.70
2022-08-09T04:52:26.666Z,60.50
2022-08-09T04:54:56.825Z,60.70
2022-08-09T04:57:25.444Z,60.80
2022-08-09T04:59:55.684Z,61.00
2022-08-09T05:02:30.673Z,61.10
2022-08-09T05:05:09.861Z,61.10
2022-08-09T05:07:39.910Z,61.20
2022-08-09T05:10:09.974Z,61.30
2022-08-09T05:12:38.338Z,61.30
2022-08-09T05:15:11.796Z,61.30
2022-08-09T05:18:38.171Z,61.20
2022-08-09T05:20:32.651Z,61.30
2022-08-09T05:23:55.428Z,61.40
2022-08-09T05:25:54.222Z,61.30
2022-08-09T05:28:25.486Z,61.30
2022-08-09T05:30:53.835Z,61.40
2022-08-09T05:33:26.200Z,61.40
2022-08-09T05:35:57.031Z,61.30
2022-08-09T05:38:27.923Z,61.20
2022-08-09T05:40:59.482Z,61.30
2022-08-09T05:43:29.107Z,61.00
2022-08-09T05:46:01.710Z,61.10
2022-08-09T05:48:33.309Z,61.10
2022-08-09T05:51:42.354Z,61.10
2022-08-09T05:53:57.585Z,60.90
2022-08-09T05:56:27.844Z,60.90
2022-08-09T05:59:07.491Z,60.90
2022-08-09T06:04:44.570Z,60.90
2022-08-09T06:07:21.138Z,60.50
2022-08-09T06:09:54.499Z,60.60
2022-08-09T06:12:34.784Z,60.00
2022-08-09T06:15:10.095Z,59.80
2022-08-09T06:17:40.673Z,59.70
2022-08-09T06:20:11.945Z,59.80
2022-08-09T06:22:47.577Z,59.60
2022-08-09T06:25:21.619Z,59.50
2022-08-09T06:27:51.814Z,59.40
2022-08-09T06:30:20.643Z,58.80
2022-08-09T06:32:59.691Z,58.60
2022-08-09T06:35:57.334Z,58.70
2022-08-09T06:38:31.877Z,58.90
2022-08-09T06:41:18.922Z,59.20
2022-08-09T06:43:49.747Z,59.00
2022-08-09T06:46:40.219Z,58.40
2022-08-09T06:49:09.585Z,58.10
2022-08-09T06:51:40.028Z,58.00
2022-08-09T06:54:13.922Z,57.70
2022-08-09T06:56:53.103Z,57.20
2022-08-09T07:00:51.173Z,57.00
2022-08-09T07:02:17.379Z,56.70
2022-08-09T07:04:45.852Z,56.80
2022-08-09T07:07:59.833Z,56.50
2022-08-09T07:10:15.653Z,56.30
2022-08-09T07:12:57.496Z,55.80
2022-08-09T07:16:36.392Z,55.20
2022-08-09T07:18:21.288Z,54.80
2022-08-09T07:21:08.288Z,50.70
2022-08-09T07:23:46.618Z,46.40
2022-08-09T07:27:03.364Z,42.50
2022-08-09T07:29:42.917Z,39.20
2022-08-09T07:32:11.480Z,37.60
2022-08-09T07:34:40.109Z,36.40
2022-08-09T07:37:42.705Z,35.50
2022-08-09T07:40:16.733Z,34.80
2022-08-09T07:46:09.212Z,33.80
2022-08-09T07:48:59.183Z,33.40
2022-08-09T07:52:05.213Z,32.50
2022-08-09T07:54:27.634Z,31.90
2022-08-09T07:57:11.630Z,32.00
2022-08-09T08:32:24.530Z,32.60
2022-08-09T08:35:13.175Z,33.20
2022-08-09T08:38:02.177Z,33.40
2022-08-09T08:40:34.261Z,34.20
2022-08-09T08:43:13.144Z,34.70
2022-08-09T08:45:53.285Z,35.20
2022-08-09T08:48:34.176Z,35.00
2022-08-09T08:51:04.924Z,34.70
2022-08-09T08:53:37.224Z,36.30
2022-08-09T08:56:06.465Z,36.20
2022-08-09T08:59:49.028Z,36.60
2022-08-09T09:01:44.736Z,36.80
2022-08-09T09:04:26.899Z,36.90
2022-08-09T09:06:59.009Z,37.80
2022-08-09T09:09:58.692Z,37.50
2022-08-09T09:12:34.127Z,36.40
2022-08-09T09:15:05.873Z,37.40
2022-08-09T09:17:49.150Z,37.10
2022-08-09T09:20:23.126Z,37.80
2022-08-09T09:28:05.395Z,36.60
2022-08-09T09:36:01.658Z,36.20
2022-08-09T09:55:35.425Z,36.60
2022-08-09T10:05:23.883Z,37.10
2022-08-09T10:08:26.161Z,36.30
2022-08-09T10:10:54.474Z,36.20
2022-08-09T10:13:43.180Z,36.90
2022-08-09T10:16:56.954Z,36.30
2022-08-09T10:19:05.032Z,36.30
2022-08-09T10:21:34.327Z,35.90
2022-08-09T10:24:05.105Z,35.90
2022-08-09T10:27:10.209Z,36.00
2022-08-09T10:30:35.161Z,35.60
2022-08-09T10:32:42.453Z,36.20
2022-08-09T10:35:13.242Z,36.00
2022-08-09T10:37:42.065Z,35.20
2022-08-09T10:40:35.208Z,35.90
2022-08-09T10:43:02.037Z,34.80
2022-08-09T10:45:35.703Z,35.60
2022-08-09T10:48:30.431Z,36.70
2022-08-09T10:51:12.272Z,37.50
2022-08-09T10:53:55.135Z,37.40
2022-08-09T10:56:49.205Z,35.90
2022-08-09T10:59:35.445Z,35.50
2022-08-09T11:03:18.428Z,33.30
2022-08-09T11:05:30.096Z,32.70
2022-08-09T11:08:30.212Z,31.90
2022-08-09T11:11:08.998Z,31.60
2022-08-09T11:13:50.485Z,32.20
2022-08-09T11:16:39.246Z,31.80
2022-08-09T11:19:11.891Z,32.00
2022-08-09T11:21:55.016Z,32.80
2022-08-09T11:25:09.884Z,31.30
2022-08-09T11:28:04.542Z,31.50
2022-08-09T11:30:36.486Z,31.20
2022-08-09T11:33:10.537Z,31.50
2022-08-09T11:35:50.203Z,32.50
2022-08-09T11:38:42.627Z,32.40
2022-08-09T11:41:38.028Z,31.90
2022-08-09T11:44:11.490Z,31.30
2022-08-09T11:46:59.586Z,30.90
2022-08-09T11:50:57.034Z,31.00
2022-08-09T11:53:58.655Z,31.50
2022-08-09T11:56:34.496Z,30.70
2022-08-09T11:59:12.278Z,31.10
2022-08-09T12:02:17.091Z,32.10
2022-08-09T12:04:37.356Z,31.30
2022-08-09T12:07:07.711Z,32.40
2022-08-09T12:09:50.628Z,32.00
2022-08-09T12:12:31.806Z,31.90
2022-08-09T12:15:07.525Z,31.90
2022-08-09T12:17:45.696Z,32.40
2022-08-09T12:20:22.461Z,33.00
2022-08-09T12:22:55.872Z,33.80
2022-08-09T12:25:32.036Z,32.70
2022-08-09T12:29:11.490Z,32.80
2022-08-09T12:30:59.818Z,33.00
2022-08-09T12:33:51.083Z,33.30
2022-08-09T12:36:31.225Z,32.90
2022-08-09T12:39:01.614Z,33.70
2022-08-09T12:41:39.535Z,33.40
2022-08-09T12:44:20.032Z,33.80
2022-08-09T12:46:53.785Z,33.50
2022-08-09T12:49:26.203Z,33.40
2022-08-09T12:52:01.069Z,33.80
2022-08-09T12:56:10.625Z,35.80
2022-08-09T12:57:43.116Z,35.40
2022-08-09T13:00:19.227Z,34.10
2022-08-09T13:02:56.015Z,34.50
2022-08-09T13:05:26.758Z,35.30
2022-08-09T13:08:21.208Z,34.60
2022-08-09T13:11:23.052Z,34.10
2022-08-09T13:14:37.288Z,35.60
2022-08-09T13:17:04.115Z,35.10
2022-08-09T13:20:09.095Z,35.50
2022-08-09T13:22:36.418Z,34.50
2022-08-09T13:25:17.289Z,34.20
2022-08-09T13:27:55.774Z,34.10
2022-08-09T13:31:53.514Z,35.10
2022-08-09T13:33:35.962Z,36.30
2022-08-09T13:36:24.356Z,34.60
2022-08-09T13:41:45.994Z,34.60
2022-08-09T13:42:00.735Z,35.40
2022-08-09T13:44:30.847Z,36.00
2022-08-09T13:47:29.288Z,35.90
2022-08-09T13:49:57.283Z,35.00
2022-08-09T13:52:26.712Z,34.60
2022-08-09T13:54:59.305Z,34.40
2022-08-09T13:57:36.702Z,35.80
2022-08-09T14:00:12.467Z,35.40
2022-08-09T14:03:03.124Z,34.90
2022-08-09T14:06:00.527Z,35.10
2022-08-09T14:08:21.551Z,35.20
2022-08-09T14:10:52.932Z,35.30
2022-08-09T14:14:22.046Z,35.00
2022-08-09T14:16:28.872Z,35.20
2022-08-09T14:18:59.551Z,34.40
2022-08-09T14:21:29.571Z,34.70
2022-08-09T14:24:01.149Z,34.60
2022-08-09T14:26:51.813Z,34.20
2022-08-09T14:30:35.286Z,35.20
2022-08-09T14:32:16.187Z,34.80
2022-08-09T14:34:46.754Z,33.50
2022-08-09T14:37:28.259Z,36.20
2022-08-09T14:39:57.166Z,35.30
2022-08-09T14:42:30.204Z,35.60
2022-08-09T14:46:54.751Z,35.50
2022-08-09T14:47:58.610Z,34.00
2022-08-09T14:50:31.118Z,34.20
2022-08-09T14:53:00.812Z,34.50
2022-08-09T14:55:32.119Z,34.80
2022-08-09T14:58:02.920Z,34.50
2022-08-09T15:00:32.226Z,34.40
2022-08-09T15:03:11.156Z,34.20
2022-08-09T15:05:49.545Z,34.70
2022-08-09T15:08:26.420Z,34.60
2022-08-09T15:11:07.244Z,34.60
2022-08-09T15:13:48.635Z,35.80
2022-08-09T15:16:31.374Z,35.90
2022-08-09T15:19:05.658Z,35.80
2022-08-09T15:21:58.458Z,35.20
2022-08-09T15:24:30.827Z,36.10
2022-08-09T15:27:20.746Z,36.80
2022-08-09T15:30:56.452Z,35.80
2022-08-09T15:32:37.376Z,35.30
2022-08-09T15:35:40.082Z,35.20
2022-08-09T15:38:11.867Z,35.10
2022-08-09T15:40:56.124Z,36.00
2022-08-09T15:43:37.053Z,35.70
2022-08-09T15:46:28.407Z,34.80
2022-08-09T15:49:21.658Z,35.40
2022-08-09T15:52:04.740Z,34.40
2022-08-09T15:54:49.443Z,36.20
2022-08-09T15:57:34.118Z,35.50
2022-08-09T16:00:06.287Z,35.00
2022-08-09T16:02:34.914Z,35.40
2022-08-09T16:05:06.748Z,35.20
2022-08-09T16:07:38.778Z,37.40
2022-08-09T16:10:38.831Z,37.20
2022-08-09T16:13:03.325Z,35.80
2022-08-09T16:16:10.495Z,36.10
2022-08-09T16:18:21.769Z,35.70
2022-08-09T16:20:54.361Z,35.20
2022-08-09T16:23:26.901Z,34.90
2022-08-09T16:26:02.800Z,35.50
2022-08-09T16:28:31.485Z,34.80
2022-08-09T16:31:15.920Z,35.30
2022-08-09T16:33:45.163Z,35.20
2022-08-09T16:36:48.103Z,35.90
2022-08-09T16:39:26.355Z,35.00
2022-08-09T16:44:56.631Z,35.60
2022-08-09T16:48:42.197Z,35.20
2022-08-09T16:50:34.836Z,35.20
2022-08-09T16:53:32.540Z,35.40
2022-08-09T16:56:11.389Z,35.70
2022-08-09T16:58:50.445Z,36.10
2022-08-09T17:01:24.625Z,36.70
2022-08-09T17:03:52.951Z,36.70
2022-08-09T17:06:31.802Z,36.10
2022-08-09T17:09:43.955Z,35.80
2022-08-09T17:15:58.677Z,36.30
2022-08-09T17:21:29.076Z,35.30
2022-08-09T17:24:20.934Z,35.20
2022-08-09T17:27:15.383Z,35.90
2022-08-09T17:35:52.126Z,35.90
2022-08-09T17:38:57.903Z,36.10
2022-08-09T17:41:39.029Z,36.60
2022-08-09T17:44:42.383Z,36.40
2022-08-09T17:47:03.998Z,36.20
2022-08-09T17:50:03.984Z,37.70
2022-08-09T17:52:42.335Z,36.40
2022-08-09T17:55:17.607Z,37.40
2022-08-09T17:58:05.355Z,36.20
2022-08-09T18:00:46.368Z,36.50
2022-08-09T18:03:17.971Z,36.20
2022-08-09T18:05:52.992Z,36.50
2022-08-09T18:08:27.283Z,36.80
2022-08-09T18:11:01.886Z,37.00
2022-08-09T18:13:43.141Z,37.20
2022-08-09T18:16:34.555Z,36.80
2022-08-09T18:20:54.501Z,37.20
2022-08-09T18:21:58.062Z,37.00
2022-08-09T18:24:29.114Z,38.00
2022-08-09T18:27:04.018Z,37.20
2022-08-09T18:30:37.645Z,37.00
2022-08-09T18:32:22.778Z,37.80
2022-08-09T18:34:55.230Z,38.00
2022-08-09T18:37:48.195Z,38.80
2022-08-09T18:40:14.951Z,38.10
2022-08-09T18:42:47.751Z,37.80
2022-08-09T18:45:21.681Z,37.60
2022-08-09T18:48:04.817Z,38.10
2022-08-09T18:50:33.498Z,37.90
2022-08-09T18:53:04.015Z,38.00
2022-08-09T18:55:56.432Z,38.90
2022-08-09T18:58:32.034Z,39.10
2022-08-09T19:01:02.012Z,38.90
2022-08-09T19:04:00.925Z,37.60
2022-08-09T19:06:21.853Z,38.40
2022-08-09T19:08:54.951Z,37.70
2022-08-09T19:11:37.768Z,38.60
2022-08-09T19:14:29.070Z,38.50
2022-08-09T19:17:02.323Z,39.50
2022-08-09T19:19:41.452Z,38.50
2022-08-09T19:22:16.745Z,38.50
2022-08-09T19:25:12.083Z,38.70
2022-08-09T19:28:13.306Z,39.50
2022-08-09T19:31:02.599Z,38.20
2022-08-09T19:33:59.807Z,38.50
2022-08-09T19:36:43.834Z,39.00
2022-08-09T19:39:16.014Z,39.00
2022-08-09T19:41:45.745Z,38.60
2022-08-09T19:44:14.342Z,40.30
2022-08-09T19:50:09.569Z,38.70
2022-08-09T19:54:43.098Z,39.00
2022-08-09T19:57:13.030Z,39.60
2022-08-09T20:00:01.900Z,39.50
2022-08-09T20:04:08.334Z,39.30
2022-08-09T20:05:20.114Z,39.70
2022-08-09T20:07:58.742Z,39.60
2022-08-09T20:10:36.400Z,39.70
2022-08-09T20:13:09.385Z,39.90
2022-08-09T20:16:36.246Z,39.90
2022-08-09T20:18:28.393Z,39.80
2022-08-09T20:20:58.129Z,40.00
2022-08-09T20:23:39.304Z,40.00
2022-08-09T20:26:52.823Z,40.10
2022-08-09T20:29:23.171Z,40.20
2022-08-09T20:32:30.694Z,40.20
2022-08-09T20:34:40.795Z,40.10
2022-08-09T20:37:09.223Z,40.30
2022-08-09T20:40:17.587Z,40.30
2022-08-09T20:42:26.645Z,40.30
2022-08-09T20:45:57.767Z,40.50
2022-08-09T20:47:48.411Z,40.50
2022-08-09T20:50:47.036Z,40.50
2022-08-09T20:53:22.766Z,40.40
2022-08-09T20:56:00.471Z,40.50
2022-08-09T20:58:32.505Z,41.10
2022-08-09T21:01:32.226Z,40.80
2022-08-09T21:04:08.051Z,40.90
2022-08-09T21:06:44.285Z,40.90
2022-08-09T21:09:14.327Z,41.00
2022-08-09T21:14:38.247Z,41.20
2022-08-09T21:18:21.807Z,41.20
2022-08-09T21:20:18.394Z,42.00
2022-08-09T21:22:54.186Z,41.50
2022-08-09T21:25:44.363Z,41.60
2022-08-09T21:28:35.254Z,41.60
2022-08-09T21:31:17.241Z,41.90
2022-08-09T21:33:52.491Z,41.40
2022-08-09T21:36:23.086Z,41.20
2022-08-09T21:38:57.413Z,41.30
2022-08-09T21:42:04.118Z,41.40
2022-08-09T21:44:33.886Z,41.50
2022-08-09T21:47:08.595Z,41.60
2022-08-09T21:49:42.599Z,41.70
2022-08-09T21:52:14.942Z,42.40
2022-08-09T21:54:50.906Z,42.20
2022-08-09T21:57:38.734Z,42.30
2022-08-09T22:00:25.845Z,42.40
2022-08-09T22:02:59.335Z,42.60
2022-08-09T22:05:37.687Z,42.50
2022-08-09T22:08:14.727Z,42.60
2022-08-09T22:11:50.196Z,42.80
2022-08-09T22:13:35.447Z,42.80
2022-08-09T22:16:07.645Z,42.90
2022-08-09T22:18:37.512Z,43.00
2022-08-09T22:21:09.271Z,43.10
2022-08-09T22:24:01.617Z,43.80
2022-08-09T22:27:06.060Z,43.40
2022-08-09T22:29:46.488Z,43.40
2022-08-09T22:32:30.303Z,43.60
2022-08-09T22:35:04.305Z,43.50
2022-08-09T22:40:20.155Z,43.10
2022-08-09T22:42:48.962Z,43.80
2022-08-09T22:48:14.813Z,43.70
2022-08-09T22:48:19.638Z,43.80
2022-08-09T22:50:55.108Z,43.90
2022-08-09T22:59:05.725Z,43.70
2022-08-09T23:01:50.599Z,43.80
2022-08-09T23:04:19.314Z,44.50
2022-08-09T23:07:10.935Z,44.00
2022-08-09T23:09:41.858Z,44.60
2022-08-09T23:12:10.325Z,44.60
2022-08-09T23:14:42.370Z,44.80
2022-08-09T23:17:11.753Z,44.80
2022-08-09T23:22:30.278Z,44.50
2022-08-09T23:24:59.952Z,45.20
2022-08-09T23:27:28.514Z,45.10
2022-08-09T23:29:56.706Z,45.20
2022-08-09T23:32:25.248Z,45.30
2022-08-09T23:34:53.440Z,45.20
2022-08-09T23:47:21.505Z,45.50
2022-08-09T23:49:49.832Z,45.40
2022-08-09T23:52:18.116Z,45.60
2022-08-09T23:54:51.512Z,46.20
2022-08-09T23:57:21.068Z,46.30
